PWSweather.com
Personal Weather Stations
Station Observations
KCTCOLEB1
Sandy Brook, Colebrook, CT 06021

Sandy BrookColebrook, CT 06021

Lat: 42.0018, Lon: -73.0825

Elevation: 935

Station Type: Davis Vantage Pro2 + Solar + UV

Latest ConditionsUpdated 3:10:00 AM EST Monday, Nov 19, 2018
Currently Today's Max Today's Min Today's Average
Temperature 32.9°F0.5°C 32.9°F0.5°C 32.3°F0.2°C 32.6°F0.3°C
Dew Point 31.4°F-0.3°C 31.4°F-0.3°C 29.2°F-1.6°C 30.2°F-1.0°C
Winds Calm Calm Calm -Calm - - Calm Calm
Wind Gusts -- -- - -
Humidity 94% 94% 87% 91%
Pressure 30.16 in1021.3 mb 30.21 in1023.0 mb 30.16 in1021.3 mb -
Precipitation - 0.04 in1.0 mm - -
Hour Temp Dew Point Humidity Winds Wind Gusts Pressure Precip Precip Rate Daily Precip Total
03:10 AM 32.9°F0.5°C 31.4°F-0.3°C 94% Calm Calm -- 30.16 in1021.3 mb - 0.01 in0.3 mm 0.04 in1.0 mm
03:00 AM 32.9°F0.5°C 31.4°F-0.3°C 94% Calm Calm -- 30.17 in1021.7 mb - 0.01 in0.3 mm 0.03 in0.8 mm
02:50 AM 32.8°F0.4°C 31.3°F-0.4°C 94% Calm Calm -- 30.18 in1022.0 mb - 0.01 in0.3 mm 0.02 in0.5 mm
02:40 AM 32.8°F0.4°C 31.3°F-0.4°C 94% Calm Calm -- 30.18 in1022.0 mb - 0.01 in0.3 mm 0.02 in0.5 mm
02:30 AM 32.7°F0.4°C 31.2°F-0.4°C 94% Calm Calm -- 30.18 in1022.0 mb - 0.01 in0.3 mm 0.01 in0.3 mm
02:20 AM 32.6°F0.3°C 30.8°F-0.7°C 93% Calm Calm -- 30.18 in1022.0 mb - 0.01 in0.3 mm 0.01 in0.3 mm
02:10 AM 32.5°F0.3°C 30.7°F-0.7°C 93% Calm Calm -- 30.18 in1022.0 mb - 0.00 in0.0 mm 0.00 in0.0 mm
02:00 AM 32.5°F0.3°C 30.4°F-0.9°C 92% Calm Calm -- 30.18 in1022.0 mb - 0.00 in0.0 mm 0.00 in0.0 mm
01:50 AM 32.5°F0.3°C 30.4°F-0.9°C 92% Calm Calm -- 30.18 in1022.0 mb - 0.00 in0.0 mm 0.00 in0.0 mm
01:40 AM 32.4°F0.2°C 30.3°F-0.9°C 92% Calm Calm -- 30.18 in1022.0 mb - 0.00 in0.0 mm 0.00 in0.0 mm
01:30 AM 32.4°F0.2°C 30.0°F-1.1°C 91% Calm Calm -- 30.19 in1022.4 mb - 0.00 in0.0 mm 0.00 in0.0 mm
01:20 AM 32.3°F0.2°C 29.7°F-1.3°C 90% Calm Calm -- 30.18 in1022.0 mb - 0.00 in0.0 mm 0.00 in0.0 mm
01:10 AM 32.3°F0.2°C 29.4°F-1.4°C 89% Calm Calm -- 30.19 in1022.4 mb - 0.00 in0.0 mm 0.00 in0.0 mm
01:00 AM 32.3°F0.2°C 29.4°F-1.4°C 89% Calm Calm -- 30.19 in1022.4 mb - 0.00 in0.0 mm 0.00 in0.0 mm
12:50 AM 32.4°F0.2°C 29.5°F-1.4°C 89% Calm Calm -- 30.19 in1022.4 mb - 0.00 in0.0 mm 0.00 in0.0 mm
12:40 AM 32.4°F0.2°C 29.5°F-1.4°C 89% Calm Calm -- 30.20 in1022.7 mb - 0.00 in0.0 mm 0.00 in0.0 mm
12:30 AM 32.5°F0.3°C 29.3°F-1.5°C 88% Calm Calm -- 30.19 in1022.4 mb - 0.00 in0.0 mm 0.00 in0.0 mm
12:20 AM 32.6°F0.3°C 29.4°F-1.4°C 88% Calm Calm -- 30.20 in1022.7 mb - 0.00 in0.0 mm 0.00 in0.0 mm
12:10 AM 32.6°F0.3°C 29.2°F-1.6°C 87% Calm Calm -- 30.21 in1023.0 mb - 0.00 in0.0 mm 0.00 in0.0 mm
12:00 AM 32.7°F0.4°C 29.3°F-1.5°C 87% Calm Calm -- 30.21 in1023.0 mb - 0.00 in0.0 mm 0.00 in0.0 mm